Barrow, AK

11:14 AKST le 05 Mars 2015 (GMT -0900)
Wiley Post-Will Rogers Memorial | Change Station
CLOSE
Current Station
Aéroport
Location: Barrow,
Altitude: 43 ft
Stations météo à proximité

Alt. 43 ft 71.28 °N, 156.79 °W | Updated 21 minutes ago

Mostly Cloudy
Nuageux
-18 ° F
Paraît -33 ° F
N
6
Vent Variable Vent de Est

Aujourd'hui
Haut(e) -- | Bas -- ° F
--% Risque de précip.
Hier
Haut(e) -- | Bas -- ° F
Precip. -- pouce
8:39 AM 6:39 PM
Pleine lune, 100% visible
Pression 30.02 pouce
Visibilité 10.0 Miles terrestres
Nuages Peu 12000 ft
Nuageux 20000 ft
Refroidissement éolien -33 ° F
Point de rosée -22 ° F
Humidité 82%
Précipitations 0.00 pouce
Profondeur de la couche neigeuse Non disponible.
UV 0 sur 12
Pollen Non disponible.
Qualité de l'air Non disponible.
Flu Activity Non disponible.
METAR PABR 051953Z 10005KT 10SM FEW120 BKN200 M28/M30 A3001 RMK AO2 SLP164 T12781300

More Conditions Fewer Conditions

Pression 30.02 pouce
Visibilité 10.0 Miles terrestres
Nuages Peu 12000 ft
Nuageux 20000 ft
Refroidissement éolien -33 ° F
Point de rosée -22 ° F
Humidité 82%
Précipitations 0.00 pouce
Profondeur de la couche neigeuse Non disponible.
UV 0 sur 12
Pollen Non disponible.
Qualité de l'air Non disponible.
Flu Activity Non disponible.
METAR PABR 051953Z 10005KT 10SM FEW120 BKN200 M28/M30 A3001 RMK AO2 SLP164 T12781300

More Conditions Fewer Conditions

10-Day Weather Forecast

Almanac

Astronomie

Mar. 05, 2015 Lever Coucher
Temps réel
Crépuscule civil
Crépuscule nautique
Crépuscule astronomique
Lune
Durée de lumière visible
Longueur du jour
Tomorrow will be .
, % of the Moon is Illuminated

Extrêmes aujourd'hui

State Highs State Lows

Community

WunderPhotos

Upload Photos

1,802,938 Photos téléchargées !

WunderBlogs® & News

Nearby

Qualité de l'air

  Qualité de l'air Indice de la qualité de l'air Polluant
Not available.

Épaisseur de neige

Station Depth Altitude

Activité sismique

Ville Distance Mag. Time & Date
Minimum magnitude displayed is 2.5.

Températures des eaux côtières

Lieu Température

Stations météo à proximité